createdAt,value
2018-04-11T00:01:39.885Z,8.98
2018-04-11T00:04:07.336Z,8.70
2018-04-11T00:06:34.805Z,6.73
2018-04-11T00:09:02.393Z,8.27
2018-04-11T00:11:29.843Z,7.53
2018-04-11T00:13:58.944Z,7.47
2018-04-11T00:16:26.424Z,8.73
2018-04-11T00:18:53.881Z,6.83
2018-04-11T00:21:21.341Z,7.18
2018-04-11T00:23:48.796Z,8.03
2018-04-11T00:26:17.956Z,7.53
2018-04-11T00:28:45.432Z,7.93
2018-04-11T00:31:12.869Z,8.47
2018-04-11T00:33:40.372Z,8.52
2018-04-11T00:36:07.878Z,7.72
2018-04-11T00:38:35.314Z,8.93
2018-04-11T00:41:06.560Z,8.93
2018-04-11T00:43:34.033Z,8.82
2018-04-11T00:46:02.316Z,10.10
2018-04-11T00:48:29.780Z,10.83
2018-04-11T00:50:57.452Z,9.17
2018-04-11T00:53:27.385Z,9.57
2018-04-11T00:56:04.849Z,9.00
2018-04-11T00:58:32.744Z,10.30
2018-04-11T01:01:00.212Z,10.00
2018-04-11T01:03:27.733Z,9.40
2018-04-11T01:05:55.227Z,9.60
2018-04-11T01:08:22.700Z,9.60
2018-04-11T01:10:53.435Z,10.43
2018-04-11T01:13:20.925Z,9.90
2018-04-11T01:15:48.387Z,10.70
2018-04-11T01:18:17.957Z,11.16
2018-04-11T01:20:45.406Z,10.53
2018-04-11T01:23:13.016Z,10.88
2018-04-11T01:25:43.659Z,12.45
2018-04-11T01:28:11.576Z,11.15
2018-04-11T01:30:39.083Z,9.80
2018-04-11T01:33:06.543Z,11.43
2018-04-11T01:35:33.999Z,9.80
2018-04-11T01:38:01.508Z,11.20
2018-04-11T01:40:28.968Z,10.82
2018-04-11T01:42:56.486Z,11.30
2018-04-11T01:45:23.966Z,11.40
2018-04-11T01:47:51.422Z,12.65
2018-04-11T01:50:19.975Z,10.82
2018-04-11T01:52:47.444Z,11.80
2018-04-11T01:55:14.917Z,12.00
2018-04-11T01:57:53.913Z,11.45
2018-04-11T02:00:22.204Z,13.00
2018-04-11T02:02:49.698Z,13.17
2018-04-11T02:05:17.187Z,12.07
2018-04-11T02:07:45.599Z,12.07
2018-04-11T02:10:13.823Z,12.73
2018-04-11T02:12:41.315Z,13.30
2018-04-11T02:15:10.485Z,13.70
2018-04-11T02:17:37.964Z,12.83
2018-04-11T02:20:05.442Z,13.03
2018-04-11T02:22:32.905Z,13.13
2018-04-11T02:25:01.146Z,13.47
2018-04-11T02:27:30.134Z,13.44
2018-04-11T02:29:57.653Z,12.95
2018-04-11T02:32:25.128Z,13.73
2018-04-11T02:34:52.612Z,13.23
2018-04-11T02:37:20.100Z,12.93
2018-04-11T02:39:49.247Z,13.20
2018-04-11T02:42:20.329Z,13.90
2018-04-11T02:44:47.925Z,15.23
2018-04-11T02:47:15.399Z,15.07
2018-04-11T02:49:43.341Z,14.98
2018-04-11T02:52:10.838Z,13.60
2018-04-11T02:54:38.298Z,15.50
2018-04-11T02:57:05.776Z,15.90
2018-04-11T02:59:36.572Z,16.60
2018-04-11T03:02:04.041Z,13.38
2018-04-11T03:04:31.646Z,15.17
2018-04-11T03:06:59.148Z,14.40
2018-04-11T03:09:27.822Z,15.52
2018-04-11T03:11:55.233Z,13.85
2018-04-11T03:14:22.906Z,14.05
2018-04-11T03:16:50.348Z,13.65
2018-04-11T03:19:17.798Z,16.62
2018-04-11T03:21:45.276Z,16.14
2018-04-11T03:24:12.764Z,15.32
2018-04-11T03:26:41.936Z,15.10
2018-04-11T03:29:09.390Z,16.08
2018-04-11T03:31:36.868Z,15.00
2018-04-11T03:34:04.322Z,17.13
2018-04-11T03:36:31.809Z,14.45
2018-04-11T03:38:59.272Z,14.80
2018-04-11T03:41:26.977Z,17.30
2018-04-11T03:43:54.760Z,17.55
2018-04-11T03:46:22.251Z,15.90
2018-04-11T03:48:49.744Z,14.90
2018-04-11T03:51:17.243Z,17.50
2018-04-11T03:53:44.738Z,15.27
2018-04-11T03:56:12.201Z,16.63
2018-04-11T03:58:43.487Z,17.37
2018-04-11T04:01:10.977Z,16.67
2018-04-11T04:03:38.682Z,17.92
2018-04-11T04:06:06.146Z,18.60
2018-04-11T04:08:33.629Z,18.10
2018-04-11T04:11:01.893Z,20.60
2018-04-11T04:13:46.321Z,18.93
2018-04-11T04:16:25.565Z,19.20
2018-04-11T04:21:52.497Z,19.05
2018-04-11T04:24:20.095Z,19.67
2018-04-11T04:26:47.557Z,18.73
2018-04-11T04:29:19.420Z,17.93
2018-04-11T04:31:46.881Z,19.02
2018-04-11T04:34:14.362Z,18.73
2018-04-11T04:36:43.187Z,18.25
2018-04-11T04:39:10.828Z,19.87
2018-04-11T04:41:38.285Z,19.30
2018-04-11T04:44:05.768Z,17.63
2018-04-11T04:46:33.248Z,19.50
2018-04-11T04:49:01.457Z,18.25
2018-04-11T04:51:28.945Z,19.37
2018-04-11T04:53:56.663Z,20.27
2018-04-11T04:56:24.902Z,20.33
2018-04-11T04:58:52.376Z,17.10
2018-04-11T05:01:20.792Z,19.10
2018-04-11T05:03:48.265Z,20.00
2018-04-11T05:06:15.716Z,18.50
2018-04-11T05:08:43.795Z,18.93
2018-04-11T05:11:11.488Z,16.20
2018-04-11T05:13:40.656Z,19.20
2018-04-11T05:16:08.121Z,17.45
2018-04-11T05:18:35.612Z,17.67
2018-04-11T05:21:03.100Z,17.90
2018-04-11T05:23:31.351Z,16.40
2018-04-11T05:25:59.569Z,17.92
2018-04-11T05:28:27.075Z,16.87
2018-04-11T05:30:54.550Z,16.70
2018-04-11T05:33:22.025Z,15.27
2018-04-11T05:35:49.580Z,16.40
2018-04-11T05:38:17.068Z,15.40
2018-04-11T05:40:44.541Z,17.73
2018-04-11T05:43:13.804Z,15.10
2018-04-11T05:45:41.461Z,18.00
2018-04-11T05:48:08.945Z,15.20
2018-04-11T05:50:36.441Z,15.40
2018-04-11T05:53:03.962Z,14.90
2018-04-11T05:55:32.412Z,14.65
2018-04-11T05:57:59.865Z,14.20
2018-04-11T06:00:27.477Z,14.47
2018-04-11T06:02:55.034Z,15.70
2018-04-11T06:05:22.490Z,14.43
2018-04-11T06:07:49.941Z,15.40
2018-04-11T06:10:17.449Z,15.13
2018-04-11T06:12:45.828Z,14.57
2018-04-11T06:15:13.318Z,15.40
2018-04-11T06:17:40.764Z,15.05
2018-04-11T06:20:08.247Z,14.40
2018-04-11T06:22:35.743Z,16.70
2018-04-11T06:25:03.524Z,16.23
2018-04-11T06:27:31.122Z,15.07
2018-04-11T06:29:59.406Z,15.90
2018-04-11T06:32:26.894Z,14.05
2018-04-11T06:34:54.366Z,14.30
2018-04-11T06:37:21.937Z,14.50
2018-04-11T06:39:49.395Z,14.48
2018-04-11T06:42:16.940Z,16.02
2018-04-11T06:44:44.415Z,13.73
2018-04-11T06:47:19.553Z,14.40
2018-04-11T06:49:50.078Z,14.60
2018-04-11T06:52:17.617Z,15.23
2018-04-11T06:54:45.081Z,14.43
2018-04-11T06:57:13.349Z,14.80
2018-04-11T06:59:40.894Z,14.60
2018-04-11T07:02:12.565Z,14.20
2018-04-11T07:04:40.036Z,15.15
2018-04-11T07:07:07.585Z,15.45
2018-04-11T07:09:35.067Z,15.63
2018-04-11T07:12:04.247Z,14.07
2018-04-11T07:14:32.521Z,13.40
2018-04-11T07:16:59.977Z,13.77
2018-04-11T07:19:27.497Z,14.55
2018-04-11T07:21:54.998Z,12.15
2018-04-11T07:24:23.021Z,12.23
2018-04-11T07:26:50.528Z,11.82
2018-04-11T07:29:18.028Z,11.10
2018-04-11T07:31:52.937Z,12.37
2018-04-11T07:34:21.736Z,12.57
2018-04-11T07:36:49.208Z,13.33
2018-04-11T07:39:16.689Z,10.70
2018-04-11T07:41:44.159Z,11.18
2018-04-11T07:44:11.656Z,13.27
2018-04-11T07:46:39.144Z,13.43
2018-04-11T07:49:12.173Z,14.50
2018-04-11T07:51:39.644Z,12.75
2018-04-11T07:54:08.077Z,13.68
2018-04-11T07:56:35.643Z,12.52
2018-04-11T07:59:03.115Z,13.20
2018-04-11T08:01:30.576Z,11.47
2018-04-11T08:04:05.220Z,12.07
2018-04-11T08:06:33.514Z,13.80
2018-04-11T08:09:01.006Z,13.13
2018-04-11T08:11:28.533Z,12.40
2018-04-11T08:13:56.823Z,13.60
2018-04-11T08:16:24.372Z,12.82
2018-04-11T08:18:52.438Z,12.43
2018-04-11T08:21:19.945Z,12.95
2018-04-11T08:23:47.400Z,11.30
2018-04-11T08:26:14.884Z,10.97
2018-04-11T08:28:42.342Z,10.75
2018-04-11T08:31:09.835Z,11.05
2018-04-11T08:33:44.960Z,10.02
2018-04-11T08:36:12.465Z,10.23
2018-04-11T08:38:39.954Z,11.17
2018-04-11T08:41:07.428Z,9.27
2018-04-11T08:43:34.928Z,9.75
2018-04-11T08:46:02.419Z,10.70
2018-04-11T08:48:29.895Z,8.90
2018-04-11T08:50:57.400Z,8.73
2018-04-11T08:53:24.864Z,9.20
2018-04-11T08:55:52.364Z,9.37
2018-04-11T08:58:20.241Z,9.57
2018-04-11T09:00:47.703Z,9.38
2018-04-11T09:03:20.006Z,7.67
2018-04-11T09:05:47.508Z,9.10
2018-04-11T09:08:16.104Z,8.80
2018-04-11T09:10:43.608Z,9.43
2018-04-11T09:13:11.075Z,8.30
2018-04-11T09:15:38.574Z,9.57
2018-04-11T09:18:06.800Z,10.13
2018-04-11T09:20:35.040Z,10.07
2018-04-11T09:23:03.336Z,9.32
2018-04-11T09:25:30.831Z,8.93
2018-04-11T09:27:59.081Z,11.50
2018-04-11T09:30:26.577Z,11.20
2018-04-11T09:32:54.069Z,10.33
2018-04-11T09:35:21.579Z,8.57
2018-04-11T09:37:49.030Z,10.10
2018-04-11T09:40:16.528Z,10.43
2018-04-11T09:42:44.080Z,9.33
2018-04-11T09:45:11.568Z,11.90
2018-04-11T09:47:39.065Z,9.50
2018-04-11T09:50:11.049Z,8.95
2018-04-11T09:52:38.521Z,9.40
2018-04-11T09:55:06.050Z,9.87
2018-04-11T09:57:33.506Z,10.80
2018-04-11T10:00:00.991Z,9.73
2018-04-11T10:02:28.477Z,9.73
2018-04-11T10:05:01.458Z,10.18
2018-04-11T10:07:29.718Z,9.43
2018-04-11T10:09:57.193Z,10.23
2018-04-11T10:12:24.669Z,8.95
2018-04-11T10:14:52.168Z,10.07
2018-04-11T10:17:19.639Z,9.50
2018-04-11T10:19:50.668Z,9.30
2018-04-11T10:22:18.136Z,8.83
2018-04-11T10:24:46.579Z,9.67
2018-04-11T10:27:14.059Z,9.07
2018-04-11T10:29:41.544Z,8.20
2018-04-11T10:32:09.007Z,8.33
2018-04-11T10:34:36.475Z,9.05
2018-04-11T10:37:03.953Z,8.80
2018-04-11T10:39:31.424Z,9.57
2018-04-11T10:41:59.289Z,8.40
2018-04-11T10:44:26.750Z,8.32
2018-04-11T10:46:55.168Z,9.45
2018-04-11T10:49:22.662Z,8.50
2018-04-11T10:51:50.185Z,8.98
2018-04-11T10:54:17.645Z,9.48
2018-04-11T10:56:45.142Z,9.40
2018-04-11T10:59:12.584Z,9.20
2018-04-11T11:01:40.087Z,8.90
2018-04-11T11:04:09.337Z,7.63
2018-04-11T11:06:37.556Z,9.00
2018-04-11T11:09:05.048Z,9.63
2018-04-11T11:11:32.840Z,8.60
2018-04-11T11:14:00.476Z,8.60
2018-04-11T11:16:36.003Z,8.15
2018-04-11T11:19:04.258Z,8.23
2018-04-11T11:21:31.837Z,6.65
2018-04-11T11:23:59.287Z,7.13
2018-04-11T11:26:26.760Z,6.93
2018-04-11T11:28:54.218Z,7.72
2018-04-11T11:31:21.701Z,6.50
2018-04-11T11:33:49.201Z,8.67
2018-04-11T11:36:16.676Z,7.87
2018-04-11T11:38:44.210Z,6.57
2018-04-11T11:41:13.386Z,7.03
2018-04-11T11:46:25.121Z,7.10
2018-04-11T11:48:52.608Z,5.70
2018-04-11T11:51:20.123Z,6.20
2018-04-11T11:53:47.659Z,7.10
2018-04-11T11:56:15.144Z,5.37
2018-04-11T11:58:42.598Z,5.00
2018-04-11T12:01:10.891Z,5.10
2018-04-11T12:03:38.611Z,5.62
2018-04-11T12:06:06.884Z,5.53
2018-04-11T12:08:38.965Z,5.03
2018-04-11T12:11:06.453Z,5.10
2018-04-11T12:13:33.964Z,4.63
2018-04-11T12:16:01.426Z,5.13
2018-04-11T12:18:29.692Z,3.70
2018-04-11T12:20:57.148Z,5.05
2018-04-11T12:23:25.413Z,4.00
2018-04-11T12:25:53.862Z,3.83
2018-04-11T12:28:21.376Z,4.03
2018-04-11T12:30:49.590Z,4.53
2018-04-11T12:33:17.791Z,5.10
2018-04-11T12:35:45.240Z,3.93
2018-04-11T12:38:17.033Z,3.53
2018-04-11T12:40:45.642Z,3.07
2018-04-11T12:43:13.252Z,3.00
2018-04-11T12:45:40.712Z,3.17
2018-04-11T12:48:08.282Z,3.95
2018-04-11T12:50:35.753Z,3.30
2018-04-11T12:53:07.709Z,3.70
2018-04-11T12:55:35.300Z,3.80
2018-04-11T12:58:02.759Z,4.67
2018-04-11T13:00:30.421Z,4.50
2018-04-11T13:02:57.881Z,4.07
2018-04-11T13:05:25.367Z,3.83
2018-04-11T13:07:52.868Z,3.08
2018-04-11T13:10:21.072Z,3.37
2018-04-11T13:12:48.561Z,3.30
2018-04-11T13:15:16.045Z,2.80
2018-04-11T13:17:43.549Z,2.50
2018-04-11T13:20:11.027Z,2.70
2018-04-11T13:22:41.877Z,2.30
2018-04-11T13:25:09.348Z,2.70
2018-04-11T13:27:36.937Z,2.20
2018-04-11T13:30:07.636Z,2.35
2018-04-11T13:32:35.925Z,2.22
2018-04-11T13:35:03.412Z,3.15
2018-04-11T13:37:30.900Z,2.07
2018-04-11T13:40:05.241Z,2.08
2018-04-11T13:42:32.700Z,2.43
2018-04-11T13:45:00.901Z,2.30
2018-04-11T13:47:28.384Z,2.83
2018-04-11T13:49:55.863Z,2.00
2018-04-11T13:52:23.357Z,1.80
2018-04-11T13:54:54.684Z,1.80
2018-04-11T13:57:22.194Z,1.93
2018-04-11T13:59:50.316Z,2.40
2018-04-11T14:02:17.769Z,2.30
2018-04-11T14:04:45.249Z,2.60
2018-04-11T14:07:12.798Z,2.33
2018-04-11T14:09:44.887Z,1.80
2018-04-11T14:12:12.453Z,2.03
2018-04-11T14:14:40.008Z,1.92
2018-04-11T14:17:07.462Z,2.72
2018-04-11T14:19:34.957Z,2.20
2018-04-11T14:22:02.448Z,2.00
2018-04-11T14:24:29.899Z,2.10
2018-04-11T14:26:57.380Z,2.50
2018-04-11T14:29:25.811Z,2.77
2018-04-11T14:31:54.225Z,2.70
2018-04-11T14:34:22.056Z,3.40
2018-04-11T14:36:49.532Z,1.75
2018-04-11T14:39:20.158Z,1.73
2018-04-11T14:41:47.615Z,2.30
2018-04-11T14:44:15.071Z,1.80
2018-04-11T14:46:42.544Z,2.60
2018-04-11T14:49:11.481Z,1.83
2018-04-11T14:51:39.582Z,2.67
2018-04-11T14:54:11.390Z,2.00
2018-04-11T14:56:38.962Z,2.73
2018-04-11T14:59:06.747Z,2.30
2018-04-11T15:01:34.221Z,2.40
2018-04-11T15:04:01.727Z,2.03
2018-04-11T15:06:29.197Z,3.30
2018-04-11T15:08:57.612Z,3.03
2018-04-11T15:11:25.583Z,2.35
2018-04-11T15:13:53.052Z,1.80
2018-04-11T15:16:20.634Z,4.55
2018-04-11T15:18:48.115Z,2.08
2018-04-11T15:21:15.581Z,3.05
2018-04-11T15:23:43.321Z,2.53
2018-04-11T15:26:14.624Z,2.55
2018-04-11T15:28:42.124Z,2.43
2018-04-11T15:31:09.624Z,1.75
2018-04-11T15:33:37.625Z,2.97
2018-04-11T15:36:05.192Z,1.70
2018-04-11T15:38:32.676Z,2.20
2018-04-11T15:41:09.099Z,2.60
2018-04-11T15:43:39.545Z,2.40
2018-04-11T15:46:19.564Z,2.55
2018-04-11T15:48:47.184Z,2.50
2018-04-11T15:51:14.719Z,2.10
2018-04-11T15:53:42.160Z,2.40
2018-04-11T15:56:12.472Z,2.43
2018-04-11T15:58:40.660Z,2.03
2018-04-11T16:01:09.351Z,4.50
2018-04-11T16:03:36.832Z,2.00
2018-04-11T16:06:04.313Z,2.70
2018-04-11T16:08:31.818Z,1.50
2018-04-11T16:10:59.285Z,1.97
2018-04-11T16:13:26.745Z,1.83
2018-04-11T16:15:54.225Z,1.70
2018-04-11T16:18:22.622Z,1.70
2018-04-11T16:20:50.908Z,2.10
2018-04-11T16:23:18.373Z,2.70
2018-04-11T16:25:51.567Z,2.30
2018-04-11T16:28:19.064Z,2.00
2018-04-11T16:30:47.353Z,1.75
2018-04-11T16:33:14.825Z,1.98
2018-04-11T16:35:42.385Z,1.73
2018-04-11T16:38:09.860Z,1.60
2018-04-11T16:40:38.093Z,1.87
2018-04-11T16:43:05.657Z,1.48
2018-04-11T16:45:33.125Z,2.13
2018-04-11T16:48:01.485Z,2.10
2018-04-11T16:50:28.946Z,2.10
2018-04-11T16:52:56.441Z,3.42
2018-04-11T16:55:23.942Z,3.50
2018-04-11T16:57:51.407Z,2.45
2018-04-11T17:00:18.957Z,1.67
2018-04-11T17:02:46.455Z,1.77
2018-04-11T17:05:14.024Z,1.80
2018-04-11T17:07:41.488Z,2.37
2018-04-11T17:10:10.245Z,1.46
2018-04-11T17:12:37.707Z,1.47
2018-04-11T17:15:05.189Z,2.03
2018-04-11T17:17:32.687Z,2.07
2018-04-11T17:20:00.172Z,1.60
2018-04-11T17:22:39.473Z,1.50
2018-04-11T17:25:18.646Z,1.57
2018-04-11T17:27:57.813Z,1.30
2018-04-11T17:33:26.811Z,1.80
2018-04-11T17:35:54.294Z,1.97
2018-04-11T17:38:22.533Z,1.73
2018-04-11T17:40:50.027Z,1.50
2018-04-11T17:43:17.473Z,1.58
2018-04-11T17:45:45.128Z,1.87
2018-04-11T17:48:13.305Z,1.80
2018-04-11T17:50:41.424Z,1.53
2018-04-11T17:53:08.895Z,1.70
2018-04-11T17:55:36.357Z,1.93
2018-04-11T17:58:11.601Z,1.73
2018-04-11T18:00:39.109Z,1.50
2018-04-11T18:03:06.591Z,1.83
2018-04-11T18:05:34.068Z,3.70
2018-04-11T18:08:01.569Z,2.08
2018-04-11T18:10:29.029Z,2.70
2018-04-11T18:12:56.498Z,1.80
2018-04-11T18:15:24.081Z,1.60
2018-04-11T18:17:52.473Z,1.80
2018-04-11T18:20:19.965Z,2.00
2018-04-11T18:22:47.423Z,2.40
2018-04-11T18:25:14.897Z,2.23
2018-04-11T18:27:45.967Z,2.30
2018-04-11T18:30:14.368Z,2.07
2018-04-11T18:32:41.947Z,3.20
2018-04-11T18:35:09.477Z,4.00
2018-04-11T18:37:37.826Z,4.43
2018-04-11T18:40:06.983Z,3.17
2018-04-11T18:42:38.144Z,4.60
2018-04-11T18:45:05.702Z,3.25
2018-04-11T18:47:33.159Z,3.10
2018-04-11T18:50:01.269Z,2.47
2018-04-11T18:52:28.793Z,3.30
2018-04-11T18:54:56.303Z,2.57
2018-04-11T18:57:23.767Z,2.93
2018-04-11T18:59:51.357Z,2.75
2018-04-11T19:02:18.816Z,2.80
2018-04-11T19:04:46.265Z,3.17
2018-04-11T19:07:13.897Z,2.20
2018-04-11T19:09:41.363Z,2.53
2018-04-11T19:12:08.841Z,3.00
2018-04-11T19:14:36.302Z,4.90
2018-04-11T19:17:04.381Z,4.40
2018-04-11T19:19:31.842Z,4.80
2018-04-11T19:21:59.337Z,3.40
2018-04-11T19:24:26.793Z,3.20
2018-04-11T19:26:54.266Z,2.20
2018-04-11T19:29:32.740Z,3.07
2018-04-11T19:32:00.213Z,3.03
2018-04-11T19:34:27.679Z,3.03
2018-04-11T19:36:55.171Z,2.55
2018-04-11T19:39:22.653Z,2.70
2018-04-11T19:41:50.280Z,3.53
2018-04-11T19:44:26.890Z,3.54
2018-04-11T19:46:55.105Z,3.05
2018-04-11T19:49:22.579Z,3.47
2018-04-11T19:51:50.065Z,3.23
2018-04-11T19:54:17.520Z,3.30
2018-04-11T19:56:45.001Z,3.50
2018-04-11T19:59:18.173Z,2.90
2018-04-11T20:01:45.665Z,3.37
2018-04-11T20:04:13.123Z,3.00
2018-04-11T20:06:40.620Z,3.58
2018-04-11T20:09:09.024Z,4.95
2018-04-11T20:11:36.485Z,3.30
2018-04-11T20:14:08.216Z,3.80
2018-04-11T20:16:35.737Z,3.53
2018-04-11T20:19:04.917Z,4.20
2018-04-11T20:21:32.392Z,4.37
2018-04-11T20:24:00.031Z,4.90
2018-04-11T20:26:27.492Z,4.28
2018-04-11T20:28:55.736Z,4.13
2018-04-11T20:31:23.229Z,8.73
2018-04-11T20:33:51.502Z,4.80
2018-04-11T20:36:19.714Z,3.90
2018-04-11T20:38:47.230Z,3.87
2018-04-11T20:41:15.454Z,4.20
2018-04-11T20:43:47.414Z,4.21
2018-04-11T20:46:14.877Z,4.40
2018-04-11T20:48:43.032Z,5.55
2018-04-11T20:51:10.511Z,5.30
2018-04-11T20:53:37.964Z,4.17
2018-04-11T20:56:05.462Z,4.55
2018-04-11T20:58:32.908Z,4.72
2018-04-11T21:01:00.409Z,5.40
2018-04-11T21:03:28.656Z,4.60
2018-04-11T21:05:57.252Z,4.82
2018-04-11T21:08:24.705Z,5.20
2018-04-11T21:10:53.281Z,5.40
2018-04-11T21:13:21.465Z,5.20
2018-04-11T21:15:50.058Z,4.63
2018-04-11T21:18:17.525Z,4.90
2018-04-11T21:20:46.716Z,5.50
2018-04-11T21:23:14.255Z,6.23
2018-04-11T21:25:41.739Z,5.67
2018-04-11T21:28:09.242Z,7.18
2018-04-11T21:30:36.695Z,5.93
2018-04-11T21:33:04.190Z,6.50
2018-04-11T21:35:32.430Z,7.23
2018-04-11T21:37:59.978Z,7.07
2018-04-11T21:40:27.452Z,6.93
2018-04-11T21:42:54.918Z,6.87
2018-04-11T21:45:22.408Z,6.27
2018-04-11T21:47:49.853Z,6.43
2018-04-11T21:50:17.295Z,6.47
2018-04-11T21:52:44.794Z,5.83
2018-04-11T21:55:12.251Z,7.80
2018-04-11T21:57:39.705Z,7.57
2018-04-11T22:00:08.015Z,7.68
2018-04-11T22:02:35.500Z,6.72
2018-04-11T22:05:02.993Z,7.10
2018-04-11T22:07:30.491Z,7.43
2018-04-11T22:09:57.973Z,8.57
2018-04-11T22:12:25.529Z,8.47
2018-04-11T22:14:53.761Z,8.10
2018-04-11T22:17:22.572Z,7.45
2018-04-11T22:19:50.136Z,8.40
2018-04-11T22:22:17.627Z,8.27
2018-04-11T22:24:45.149Z,6.72
2018-04-11T22:27:12.666Z,8.50
2018-04-11T22:29:41.624Z,7.93
2018-04-11T22:32:09.104Z,7.37
2018-04-11T22:34:37.376Z,7.73
2018-04-11T22:37:06.525Z,9.63
2018-04-11T22:39:34.078Z,9.13
2018-04-11T22:42:02.484Z,8.67
2018-04-11T22:44:30.309Z,9.50
2018-04-11T22:46:57.848Z,10.70
2018-04-11T22:49:27.054Z,9.40
2018-04-11T22:51:55.645Z,11.10
2018-04-11T22:54:23.122Z,9.73
2018-04-11T22:56:50.668Z,10.70
2018-04-11T22:59:18.167Z,10.80
2018-04-11T23:01:45.710Z,10.25
2018-04-11T23:04:13.267Z,10.50
2018-04-11T23:06:40.868Z,10.30
2018-04-11T23:09:08.720Z,10.65
2018-04-11T23:11:36.198Z,10.00
2018-04-11T23:14:04.517Z,11.50
2018-04-11T23:16:31.976Z,10.87
2018-04-11T23:18:59.443Z,12.13
2018-04-11T23:21:27.664Z,12.07
2018-04-11T23:23:55.488Z,10.63
2018-04-11T23:26:22.940Z,11.93
2018-04-11T23:28:50.427Z,9.83
2018-04-11T23:31:18.411Z,11.67
2018-04-11T23:33:45.902Z,10.73
2018-04-11T23:36:13.385Z,11.50
2018-04-11T23:38:41.621Z,10.73
2018-04-11T23:41:09.100Z,11.23
2018-04-11T23:43:36.553Z,11.17
2018-04-11T23:46:04.245Z,11.13
2018-04-11T23:48:36.333Z,12.23
2018-04-11T23:51:03.775Z,12.40
2018-04-11T23:53:32.803Z,12.07
2018-04-11T23:56:01.090Z,12.40
2018-04-11T23:58:28.566Z,10.95
